Aeroporto :
LOGIN :

Iscrizione | Disclaimer

   EN    FR    IT 

 










Sommario :    VFR   VFR Marginale   IFR   IFR Intensivo   IFR Molto Intensivo
Visibilità : 
Base nubi : 
>= 8 km
>= 3000ft
5 / 8 km
1000 / 3000 ft
1500m / 5 km
500 / 1000 ft
800 / 1500m
200 / 500 ft
< 800m
< 200 ft
Simboli :   Temporali  Nebbia  Neve Forte  Precipitazioni Forti  Vento > 20 kt
SIGMETs :   Varie  Temporali  Ghiacco  Turbolenza  Onda orograficha  Ceneri Vulcaniche







- Altitudine del aeroporto : 302 ft
- Carte del aeroporto


LFPM - Melun Villaroche

ULTIMO METAR :
  • 161300Z AUTO 22007KT 190V270 9999 FEW038 OVC056 22/14 Q1021

METARs OBSOLETI :
  • 161230Z AUTO 20009KT 160V240 9999 FEW042 BKN060 22/12 Q1021
  • 161200Z AUTO 22009KT 180V260 9999 FEW035 BKN064 22/13 Q1021
  • 161130Z AUTO 21010KT 180V240 9999 FEW037 BKN056 BKN068 23/14 Q1022
  • 161100Z AUTO 20008KT 170V230 9999 SCT032 SCT039 BKN050 20/13 Q1022
  • 161030Z AUTO 22007KT 190V250 9999 SCT031 SCT040 BKN047 20/13 Q1022

Previsioni scadute.
ATIS : +33 1 64 14 28 44
Nessun NOTAM noto per questo aeroporto.



MetMap, La meteo Aeronautica in un colpo d'occhio ! - Copyright ORBIFLY Dicembre 2007 - Disclaimer

ORBIFLY MET'MAP TEAM :

Programmazione e sviluppo : Alexandra Zaïnal
Concezione e sviluppo : Baudouin d'Aumeries
Co-Programmazione e sviluppo : Marc-Olivier Méhu
Supporto tecnico e logistico : Manuel Goepfert
Aiuto per la traduzione : Arnaldo La Scala

Contatto : metmap@orbifly.com




FONTI E CREDITI :

   NOAA